Terminal Aerodrome Forecast
Issued by NWS

Home | Current Version | Previous Version | Text Only | Print | Product List | Glossary On
Versions: 1 2 3 4 5 6 7 8 9 10 11 12
633
FTUS43 KEAX 301720
TAFMKC
TAF
KMKC 301720Z 3018/0118 28012KT P6SM BKN035
     FM010000 28008KT P6SM BKN050
     FM010500 27007KT P6SM SCT250=

USA.gov is the U.S. government's official web portal to all federal, state and local government web resources and services.